Time;durP1;ratioP1;P1;durP2;ratioP2;P2;SDS_P1;SDS_P2;PMS_P1;PMS_P2;Temp;Humidity;BMP_temperature;BMP_pressure;BME280_temperature;BME280_humidity;BME280_pressure;Samples;Min_cycle;Max_cycle;Signal;HPM_P1;HPM_P2
2022/12/08 00:00:01;;;;;;;8.73;5.12;;;;;;;1.66;92.42;99853.73;1717933;82;28269;-85
2022/12/08 00:02:31;;;;;;;9.73;5.40;;;;;;;1.66;92.42;99853.73;1736294;82;25773;-85
2022/12/08 00:10:27;;;;;;;8.05;4.03;;;;;;;1.67;91.97;99858.02;1744269;82;25757;-85
2022/12/08 00:12:53;;;;;;;8.93;4.90;;;;;;;1.66;91.91;99862.13;1741138;82;28260;-85
2022/12/08 00:15:20;;;;;;;9.40;4.95;;;;;;;1.64;91.73;99861.45;1710716;83;25328;-85
2022/12/08 00:17:46;;;;;;;9.18;3.98;;;;;;;1.60;91.46;99856.97;1704637;84;26115;-84
2022/12/08 00:20:12;;;;;;;7.00;4.10;;;;;;;1.56;91.31;99861.69;1705617;84;25757;-85
2022/12/08 00:22:38;;;;;;;7.40;4.25;;;;;;;1.53;91.18;99858.53;1680691;84;25806;-85
2022/12/08 00:25:06;;;;;;;7.08;4.78;;;;;;;1.52;91.27;99871.36;1741155;82;27456;-85
2022/12/08 00:27:32;;;;;;;7.22;4.35;;;;;;;1.50;91.14;99864.09;1739236;82;25854;-85
2022/12/08 00:29:58;;;;;;;8.18;4.40;;;;;;;1.47;90.99;99866.55;1742577;82;25784;-84
2022/12/08 00:32:25;;;;;;;8.38;4.17;;;;;;;1.45;91.01;99868.99;1730671;82;26399;-84
2022/12/08 00:34:51;;;;;;;7.45;4.08;;;;;;;1.43;90.89;99873.08;1729004;82;25360;-84
2022/12/08 00:37:17;;;;;;;7.40;3.80;;;;;;;1.40;90.85;99874.70;1717655;82;28272;-85
2022/12/08 00:39:44;;;;;;;9.68;3.42;;;;;;;1.38;90.90;99880.63;1695149;84;25798;-84
2022/12/08 00:42:13;;;;;;;6.42;4.00;;;;;;;1.37;90.75;99872.83;1732715;82;25813;-85
2022/12/08 00:44:42;;;;;;;7.90;3.35;;;;;;;1.35;90.82;99883.53;1747350;81;26069;-86
2022/12/08 00:47:09;;;;;;;7.33;3.02;;;;;;;1.33;90.65;99880.69;1747517;81;25885;-84
2022/12/08 00:49:35;;;;;;;10.05;3.77;;;;;;;1.32;90.71;99883.01;1747519;81;27456;-85
2022/12/08 00:52:02;;;;;;;8.48;3.85;;;;;;;1.31;90.65;99895.84;1733693;81;26401;-84
2022/12/08 00:54:28;;;;;;;5.83;3.00;;;;;;;1.28;90.61;99900.91;1726883;82;25831;-86
2022/12/08 00:56:55;;;;;;;7.95;3.10;;;;;;;1.28;90.57;99898.78;1699437;83;26533;-85
2022/12/08 00:59:21;;;;;;;9.20;3.75;;;;;;;1.26;90.69;99911.30;1696491;84;25804;-84
2022/12/08 01:01:47;;;;;;;7.33;3.67;;;;;;;1.24;90.54;99911.92;1676844;84;27482;-85
2022/12/08 01:04:17;;;;;;;5.42;2.98;;;;;;;1.23;90.71;99916.36;1742050;82;25776;-86
2022/12/08 01:06:45;;;;;;;6.93;3.13;;;;;;;1.23;90.82;99915.05;1719910;82;25817;-85
2022/12/08 01:09:14;;;;;;;8.75;3.58;;;;;;;1.23;90.71;99916.36;1729243;82;26350;-85
2022/12/08 01:11:40;;;;;;;5.92;3.35;;;;;;;1.20;90.75;99920.59;1729349;82;25900;-86
2022/12/08 01:14:06;;;;;;;7.30;3.40;;;;;;;1.20;90.82;99921.91;1741373;82;27444;-85
2022/12/08 01:16:35;;;;;;;8.90;3.47;;;;;;;1.18;90.79;99916.43;1727133;81;25838;-84
2022/12/08 01:19:02;;;;;;;5.65;2.92;;;;;;;1.17;90.84;99920.90;1697290;83;25338;-85
2022/12/08 01:21:29;;;;;;;9.08;3.87;;;;;;;1.16;90.89;99915.27;1704753;83;25941;-85
2022/12/08 01:24:01;;;;;;;5.40;3.20;;;;;;;1.17;91.08;99924.86;1717607;83;25920;-84
2022/12/08 01:26:28;;;;;;;7.90;3.35;;;;;;;1.18;91.02;99926.50;1676574;84;27495;-85
2022/12/08 01:28:54;;;;;;;10.65;3.65;;;;;;;1.18;90.94;99923.86;1715515;83;26560;-84
2022/12/08 01:31:21;;;;;;;8.38;3.27;;;;;;;1.18;90.98;99922.55;1705135;84;25953;-84
2022/12/08 01:33:49;;;;;;;4.75;2.98;;;;;;;1.21;91.09;99922.75;1687814;84;26295;-85
2022/12/08 01:36:25;;;;;;;7.92;3.60;;;;;;;1.23;91.01;99922.12;1680351;84;25785;-85
2022/12/08 01:38:55;;;;;;;7.90;3.15;;;;;;;1.24;91.06;99929.07;1684979;84;27577;-84
2022/12/08 01:41:25;;;;;;;7.08;3.47;;;;;;;1.27;91.19;99924.81;1705220;82;25334;-85
2022/12/08 01:44:09;;;;;;;8.85;4.22;;;;;;;1.26;90.67;99923.16;1680250;84;25981;-84
2022/12/08 01:46:40;;;;;;;9.25;3.40;;;;;;;1.25;90.74;99918.84;1674448;84;25867;-85
2022/12/08 01:49:20;;;;;;;7.05;2.90;;;;;;;1.24;90.78;99922.48;1694203;84;25850;-86
2022/12/08 01:52:15;;;;;;;7.13;3.63;;;;;;;1.26;90.84;99925.80;1712160;83;27478;-85
2022/12/08 01:54:55;;;;;;;5.80;3.72;;;;;;;1.24;90.56;99927.75;1697064;84;26382;-85
2022/12/08 01:57:42;;;;;;;6.87;3.47;;;;;;;1.23;90.63;99928.72;1699201;83;26303;-85
2022/12/08 02:00:14;;;;;;;6.35;3.20;;;;;;;1.22;90.42;99934.98;1689920;84;25866;-85
2022/12/08 02:03:00;;;;;;;10.15;4.22;;;;;;;1.19;90.41;99931.30;1681570;84;25371;-85
2022/12/08 02:05:33;;;;;;;8.05;3.35;;;;;;;1.19;90.69;99928.66;1677083;84;27599;-85
2022/12/08 02:08:05;;;;;;;6.62;3.92;;;;;;;1.19;90.58;99931.30;1681098;84;26164;-85
2022/12/08 02:10:36;;;;;;;7.42;3.17;;;;;;;1.18;90.58;99927.82;1674353;84;25987;-86
2022/12/08 02:13:04;;;;;;;9.48;4.58;;;;;;;1.18;90.57;99927.82;1689389;84;26516;-85
2022/12/08 02:15:39;;;;;;;6.35;3.33;;;;;;;1.18;90.48;99930.45;1702661;84;25715;-86
2022/12/08 02:18:17;;;;;;;10.80;3.65;;;;;;;1.20;90.54;99938.22;1692638;84;28512;-85
2022/12/08 02:20:54;;;;;;;7.33;3.55;;;;;;;1.20;90.56;99936.42;1697159;83;25733;-84
2022/12/08 02:23:47;;;;;;;5.72;3.55;;;;;;;1.24;90.59;99936.98;1691681;84;25807;-85
2022/12/08 02:26:30;;;;;;;5.28;3.62;;;;;;;1.25;90.52;99937.31;1704596;84;25868;-86
2022/12/08 02:29:34;;;;;;;6.97;3.58;;;;;;;1.25;90.53;99938.16;1677399;84;25894;-85
2022/12/08 02:32:40;;;;;;;7.67;3.52;;;;;;;1.26;90.29;99942.44;1741808;82;28288;-84
2022/12/08 02:35:52;;;;;;;7.78;4.05;;;;;;;1.18;89.88;99949.41;1730166;81;25803;-85
2022/12/08 02:38:44;;;;;;;8.55;3.95;;;;;;;1.14;90.30;99947.55;1721703;81;25917;-85
2022/12/08 02:41:19;;;;;;;9.48;4.45;;;;;;;1.14;90.49;99950.66;1731162;82;26482;-84
2022/12/08 02:44:03;;;;;;;8.20;3.80;;;;;;;1.14;90.41;99954.63;1735891;81;25885;-85
2022/12/08 02:46:38;;;;;;;8.60;3.90;;;;;;;1.14;90.45;99955.94;1727184;81;28749;-84
2022/12/08 02:49:06;;;;;;;8.25;4.62;;;;;;;1.14;90.45;99959.90;1731849;82;25875;-84
2022/12/08 02:51:32;;;;;;;7.58;4.15;;;;;;;1.10;90.26;99961.16;1728703;82;25968;-85
2022/12/08 02:54:00;;;;;;;11.93;5.37;;;;;;;1.09;90.43;99963.47;1723497;82;26532;-85
2022/12/08 02:56:58;;;;;;;5.60;4.08;;;;;;;1.10;90.35;99954.56;1722982;82;25747;-84
2022/12/08 02:59:42;;;;;;;9.23;4.80;;;;;;;1.08;90.34;99959.16;1692242;83;28920;-85
2022/12/08 03:02:39;;;;;;;8.85;4.58;;;;;;;1.07;90.36;99957.00;1696893;84;26331;-85
2022/12/08 03:05:31;;;;;;;8.08;4.03;;;;;;;1.06;90.22;99958.47;1724333;81;26088;-85
2022/12/08 03:08:18;;;;;;;10.30;4.60;;;;;;;1.03;90.14;99960.89;1739768;82;26485;-86
2022/12/08 03:10:51;;;;;;;7.87;4.42;;;;;;;1.02;90.36;99960.56;1720943;82;25945;-85
2022/12/08 03:13:34;;;;;;;8.43;4.55;;;;;;;1.01;90.42;99961.52;1733529;82;27483;-85
2022/12/08 03:16:03;;;;;;;11.20;4.65;;;;;;;1.01;90.40;99966.80;1735190;81;25918;-85
2022/12/08 03:18:33;;;;;;;8.88;5.15;;;;;;;1.00;90.46;99970.42;1733010;82;25936;-85
2022/12/08 03:21:00;;;;;;;8.13;4.87;;;;;;;1.02;90.51;99980.82;1685261;83;26011;-84
2022/12/08 03:23:27;;;;;;;11.05;4.90;;;;;;;1.01;90.48;99979.14;1718485;82;25879;-84
2022/12/08 03:26:14;;;;;;;6.90;4.65;;;;;;;1.00;90.57;99984.09;1698307;84;27491;-84
2022/12/08 03:28:40;;;;;;;7.95;5.20;;;;;;;1.00;90.75;99982.29;1682209;84;26009;-86
2022/12/08 03:31:11;;;;;;;10.23;5.45;;;;;;;1.00;90.82;99986.72;1686532;84;25891;-84
2022/12/08 03:33:42;;;;;;;8.20;4.78;;;;;;;1.00;90.86;99997.27;1684350;84;26625;-84
2022/12/08 03:36:11;;;;;;;9.98;5.00;;;;;;;1.00;90.99;99990.68;1692615;84;25808;-85
2022/12/08 03:38:40;;;;;;;11.63;5.15;;;;;;;1.02;91.18;99993.53;1697301;84;27553;-85
2022/12/08 03:41:19;;;;;;;6.97;5.08;;;;;;;1.05;91.32;99999.02;1676915;84;26132;-84
2022/12/08 03:43:50;;;;;;;8.43;5.45;;;;;;;1.06;91.09;99996.70;1692526;83;25846;-84
2022/12/08 03:46:17;;;;;;;;;;;;;;;1.06;91.17;100005.45;1683545;83;25865;-84
2022/12/08 03:48:44;;;;;;;10.58;5.87;;;;;;;1.06;91.08;100005.45;1711288;83;25870;-84
2022/12/08 03:51:10;;;;;;;9.63;5.45;;;;;;;1.04;91.37;99996.86;1688611;84;27483;-86
2022/12/08 03:53:37;;;;;;;9.30;5.28;;;;;;;1.07;91.37;99996.55;1684902;84;25365;-84
2022/12/08 03:56:12;;;;;;;13.30;6.60;;;;;;;1.09;91.30;99999.07;1685689;84;25838;-85
2022/12/08 03:58:38;;;;;;;10.93;7.08;;;;;;;1.09;91.23;99997.24;1681183;84;25796;-85
2022/12/08 04:01:04;;;;;;;11.40;6.65;;;;;;;1.09;91.18;99996.44;1737981;82;25879;-84
2022/12/08 04:03:32;;;;;;;12.43;6.45;;;;;;;1.09;91.14;100006.47;1736004;82;27124;-84
2022/12/08 04:05:59;;;;;;;12.60;6.42;;;;;;;1.09;91.05;100001.70;1742990;81;25789;-83
2022/12/08 04:08:25;;;;;;;18.85;8.75;;;;;;;1.10;91.15;100004.67;1727424;82;26234;-84
2022/12/08 04:10:52;;;;;;;12.68;6.97;;;;;;;1.08;91.02;100006.14;1727382;81;26531;-84
2022/12/08 04:13:19;;;;;;;11.75;6.60;;;;;;;1.07;91.02;100011.57;1737439;82;25303;-85
2022/12/08 04:15:47;;;;;;;11.75;7.80;;;;;;;1.06;91.01;100009.41;1717631;82;27466;-84
2022/12/08 04:18:14;;;;;;;18.32;7.67;;;;;;;1.06;91.14;100008.57;1732514;82;25844;-85
2022/12/08 04:20:45;;;;;;;16.80;7.80;;;;;;;1.08;91.13;100014.53;1695653;83;26273;-85
2022/12/08 04:23:12;;;;;;;14.10;7.37;;;;;;;1.07;91.10;100018.97;1695169;83;26589;-85
2022/12/08 04:25:38;;;;;;;14.65;8.30;;;;;;;1.07;91.12;100016.33;1689302;84;25831;-86
2022/12/08 04:28:05;;;;;;;9.98;6.97;;;;;;;1.07;91.12;100016.84;1698295;84;27437;-85
2022/12/08 04:30:32;;;;;;;12.90;8.05;;;;;;;1.07;91.05;100022.92;1693514;84;26671;-85
2022/12/08 04:32:59;;;;;;;11.70;7.67;;;;;;;1.03;90.89;100024.18;1705247;83;25944;-85
2022/12/08 04:35:25;;;;;;;15.50;9.18;;;;;;;1.02;90.99;100023.02;1703547;84;26511;-85
2022/12/08 04:37:51;;;;;;;15.35;8.75;;;;;;;1.05;91.17;100018.28;1717220;83;25821;-85
2022/12/08 04:40:18;;;;;;;13.10;7.87;;;;;;;1.04;90.81;100017.95;1733142;82;27452;-86
2022/12/08 04:42:44;;;;;;;13.15;8.30;;;;;;;1.02;90.67;100027.81;1740156;82;25871;-84
2022/12/08 04:45:10;;;;;;;10.03;6.90;;;;;;;1.01;90.72;100030.56;1730183;81;25783;-86
2022/12/08 04:47:37;;;;;;;13.62;9.10;;;;;;;1.02;90.79;100031.77;1717385;82;26445;-84
2022/12/08 04:50:05;;;;;;;11.90;7.60;;;;;;;1.05;90.94;100038.57;1729435;82;26399;-85
2022/12/08 04:52:31;;;;;;;12.88;7.62;;;;;;;1.06;90.71;100027.03;1720521;83;27486;-83
2022/12/08 04:54:58;;;;;;;12.45;8.18;;;;;;;1.06;90.65;100033.63;1705133;83;25873;-86
2022/12/08 04:57:24;;;;;;;14.58;7.90;;;;;;;1.05;90.64;100038.06;1685939;84;25743;-85
2022/12/08 04:59:50;;;;;;;13.22;7.35;;;;;;;1.09;90.81;100046.55;1693394;84;26507;-84
2022/12/08 05:02:17;;;;;;;14.63;8.10;;;;;;;1.11;90.64;100053.31;1690698;84;25837;-85
2022/12/08 05:04:43;;;;;;;12.05;8.30;;;;;;;1.14;90.63;100049.09;1733116;82;27474;-84
2022/12/08 05:07:09;;;;;;;12.75;7.60;;;;;;;1.17;90.50;100051.95;1743841;82;25830;-85
2022/12/08 05:09:36;;;;;;;12.15;6.95;;;;;;;1.17;90.45;100047.98;1728177;81;25334;-84
2022/12/08 05:12:03;;;;;;;12.00;7.72;;;;;;;1.20;90.46;100052.48;1724382;81;25895;-85
2022/12/08 05:14:32;;;;;;;12.65;8.80;;;;;;;1.20;90.58;100053.80;1726179;82;25931;-84
2022/12/08 05:16:58;;;;;;;15.53;8.55;;;;;;;1.22;90.73;100051.86;1710383;83;27460;-85
2022/12/08 05:19:24;;;;;;;13.68;8.60;;;;;;;1.25;90.74;100048.11;1742547;81;25929;-85
2022/12/08 05:21:51;;;;;;;14.70;8.65;;;;;;;1.25;90.83;100050.75;1739100;82;25327;-85
2022/12/08 05:24:17;;;;;;;14.13;7.45;;;;;;;1.27;90.89;100045.68;1723618;82;26274;-84
2022/12/08 05:26:43;;;;;;;14.13;7.40;;;;;;;1.25;90.73;100050.75;1737429;82;25729;-84
2022/12/08 05:29:09;;;;;;;15.08;9.10;;;;;;;1.25;90.77;100053.39;1734572;82;28689;-85
2022/12/08 05:31:36;;;;;;;20.65;8.70;;;;;;;1.25;90.91;100046.31;1734869;81;25579;-85
2022/12/08 05:34:02;;;;;;;17.70;8.63;;;;;;;1.23;90.73;100041.66;1709392;83;25869;-85
2022/12/08 05:36:29;;;;;;;17.73;8.50;;;;;;;1.23;90.82;100038.19;1690042;84;26503;-84
2022/12/08 05:38:57;;;;;;;13.70;8.43;;;;;;;1.25;90.84;100044.99;1680742;84;25680;-84
2022/12/08 05:41:23;;;;;;;18.10;8.53;;;;;;;1.25;90.75;100044.16;1717715;82;27451;-84
2022/12/08 05:43:52;;;;;;;12.47;7.92;;;;;;;1.25;90.74;100046.79;1718989;82;25913;-85
2022/12/08 05:46:18;;;;;;;16.87;8.18;;;;;;;1.24;90.76;100045.14;1724539;82;25791;-85
2022/12/08 05:48:44;;;;;;;12.53;8.55;;;;;;;1.26;90.63;100054.55;1725840;82;25991;-85
2022/12/08 05:51:21;;;;;;;14.85;7.65;;;;;;;1.23;90.57;100054.86;1704130;83;25841;-85
2022/12/08 05:53:48;;;;;;;10.45;7.37;;;;;;;1.24;90.59;100058.33;1685871;84;27482;-85
2022/12/08 05:56:15;;;;;;;13.55;8.13;;;;;;;1.25;90.55;100062.14;1679348;84;25957;-85
2022/12/08 05:58:41;;;;;;;17.98;9.60;;;;;;;1.23;90.43;100064.56;1686181;83;25825;-85
2022/12/08 06:01:26;;;;;;;12.40;8.20;;;;;;;1.23;90.57;100071.16;1677634;83;26192;-85
2022/12/08 06:03:53;;;;;;;17.52;8.75;;;;;;;1.22;90.58;100074.28;1722466;81;25756;-84
2022/12/08 06:06:20;;;;;;;15.45;8.45;;;;;;;1.21;90.64;100072.63;1728957;82;28013;-85
2022/12/08 06:08:47;;;;;;;16.70;8.83;;;;;;;1.22;90.64;100082.19;1726624;81;26148;-86
2022/12/08 06:11:23;;;;;;;16.25;8.53;;;;;;;1.21;90.63;100084.50;1725719;82;25717;-85
2022/12/08 06:13:50;;;;;;;15.48;9.48;;;;;;;1.24;90.66;100084.72;1726390;82;25900;-85
2022/12/08 06:16:17;;;;;;;19.20;11.18;;;;;;;1.24;90.72;100087.35;1730137;82;25798;-84
2022/12/08 06:18:44;;;;;;;17.77;9.43;;;;;;;1.25;90.69;100089.00;1725600;82;27462;-86
2022/12/08 06:21:13;;;;;;;18.23;10.20;;;;;;;1.26;90.75;100092.00;1723562;81;26056;-86
2022/12/08 06:23:39;;;;;;;18.23;9.48;;;;;;;1.29;90.80;100096.98;1702295;83;25388;-86
2022/12/08 06:26:12;;;;;;;19.90;9.53;;;;;;;1.29;90.63;100089.91;1683547;84;25871;-86
2022/12/08 06:28:39;;;;;;;16.25;8.85;;;;;;;1.30;90.57;100088.95;1707351;83;25812;-86
2022/12/08 06:31:19;;;;;;;25.10;10.45;;;;;;;1.29;90.24;100096.50;1683197;84;27999;-87
2022/12/08 06:33:46;;;;;;;14.35;8.88;;;;;;;1.26;89.92;100099.41;1682359;84;26349;-86
2022/12/08 06:36:15;;;;;;;16.10;8.03;;;;;;;1.24;90.06;100103.18;1678823;84;25787;-86
2022/12/08 06:38:42;;;;;;;16.73;8.50;;;;;;;1.24;90.10;100103.98;1681704;84;25911;-85
2022/12/08 06:41:08;;;;;;;14.85;8.75;;;;;;;1.23;90.19;100110.25;1731301;82;25844;-86
2022/12/08 06:43:35;;;;;;;15.90;9.05;;;;;;;1.24;90.30;100105.81;1728891;82;28135;-87
2022/12/08 06:46:05;;;;;;;15.18;9.20;;;;;;;1.24;90.25;100109.77;1738665;82;25916;-86
2022/12/08 06:48:32;;;;;;;19.75;10.13;;;;;;;1.26;90.34;100111.27;1728585;82;33090;-86
2022/12/08 06:51:12;;;;;;;17.00;9.63;;;;;;;1.27;90.41;100112.12;1738231;82;26574;-85
2022/12/08 06:53:40;;;;;;;18.42;10.03;;;;;;;1.29;90.45;100111.01;1722822;82;25844;-86
2022/12/08 06:56:06;;;;;;;15.03;8.93;;;;;;;1.32;90.36;100119.14;1731768;82;27462;-86
2022/12/08 06:58:33;;;;;;;14.85;8.55;;;;;;;1.32;90.25;100108.11;1746775;81;25891;-85
2022/12/08 07:01:09;;;;;;;17.55;9.28;;;;;;;1.34;90.15;100115.88;1709985;83;25289;-86
2022/12/08 07:03:38;;;;;;;15.50;8.78;;;;;;;1.32;89.99;100119.14;1747847;81;26527;-84
2022/12/08 07:06:05;;;;;;;21.12;10.58;;;;;;;1.35;90.20;100120.16;1746994;81;25780;-85
2022/12/08 07:08:33;;;;;;;24.50;10.40;;;;;;;1.37;90.03;100126.13;1747163;81;27465;-86
2022/12/08 07:11:09;;;;;;;17.05;9.53;;;;;;;1.35;89.93;100124.11;1739518;81;25918;-86
2022/12/08 07:13:36;;;;;;;17.25;9.98;;;;;;;1.36;89.91;100131.08;1732171;81;26398;-86
2022/12/08 07:16:08;;;;;;;15.95;10.03;;;;;;;1.37;90.11;100131.41;1719071;82;25841;-86
2022/12/08 07:18:35;;;;;;;15.58;9.33;;;;;;;1.38;89.98;100129.97;1707550;83;25992;-86
2022/12/08 07:21:08;;;;;;;15.23;8.23;;;;;;;1.40;90.01;100127.18;1687205;84;27635;-86
2022/12/08 07:23:35;;;;;;;18.65;9.90;;;;;;;1.43;89.98;100134.31;1681422;84;25818;-86
2022/12/08 07:26:04;;;;;;;19.77;9.33;;;;;;;1.45;89.99;100127.09;1684920;84;25618;-85
2022/12/08 07:28:34;;;;;;;18.50;9.45;;;;;;;1.49;90.04;100127.67;1686749;84;26544;-77
2022/12/08 07:31:01;;;;;;;19.85;9.80;;;;;;;1.50;89.98;100131.95;1709412;82;50804;-88
2022/12/08 07:33:27;;;;;;;21.87;10.60;;;;;;;1.52;89.94;100129.52;1713170;82;27456;-84
2022/12/08 07:35:59;;;;;;;16.15;9.10;;;;;;;1.54;89.92;100128.06;1718231;82;25918;-83
2022/12/08 07:38:26;;;;;;;17.70;9.50;;;;;;;1.58;89.98;100139.19;1710895;82;25933;-87
2022/12/08 07:40:53;;;;;;;18.37;10.55;;;;;;;1.62;90.01;100143.20;1711503;82;25813;-86
2022/12/08 07:43:21;;;;;;;20.05;11.10;;;;;;;1.66;89.96;100144.11;1720908;82;26343;-88
2022/12/08 07:45:49;;;;;;;16.52;9.68;;;;;;;1.69;89.77;100141.17;1716391;81;27470;-88
2022/12/08 07:48:16;;;;;;;22.65;10.32;;;;;;;1.70;89.67;100146.81;1711208;82;25850;-88
2022/12/08 07:50:42;;;;;;;16.02;10.00;;;;;;;1.74;89.66;100149.51;1712940;82;25361;-91
2022/12/08 07:53:09;;;;;;;18.42;9.00;;;;;;;1.73;89.58;100150.50;1737143;81;25869;-85
2022/12/08 07:55:43;;;;;;;20.65;10.08;;;;;;;1.74;89.43;100156.59;1695153;81;25788;-86
2022/12/08 07:58:10;;;;;;;20.27;11.10;;;;;;;1.74;89.34;100149.98;1723313;82;27453;-85
2022/12/08 08:00:37;;;;;;;19.98;11.00;;;;;;;1.76;89.31;100152.00;1706781;81;25869;-85
2022/12/08 08:03:03;;;;;;;18.77;9.45;;;;;;;1.75;89.19;100155.15;1717003;81;26121;-86
2022/12/08 08:05:30;;;;;;;18.98;10.50;;;;;;;1.75;88.99;100155.15;1729387;81;26354;-84
2022/12/08 08:07:56;;;;;;;21.00;10.98;;;;;;;1.75;89.13;100149.87;1723305;82;25341;-84
2022/12/08 08:10:25;;;;;;;20.43;9.58;;;;;;;1.80;89.25;100157.34;1737604;81;27684;-85
2022/12/08 08:12:51;;;;;;;16.30;8.70;;;;;;;1.83;89.21;100148.67;1713660;81;25869;-86
2022/12/08 08:15:19;;;;;;;17.15;9.10;;;;;;;1.85;88.83;100156.44;1717802;82;25286;-87
2022/12/08 08:17:50;;;;;;;14.00;8.38;;;;;;;1.83;88.82;100159.70;1719294;81;25775;-87
2022/12/08 08:20:18;;;;;;;17.20;9.05;;;;;;;1.82;88.62;100157.55;1728022;81;25904;-88
2022/12/08 08:22:49;;;;;;;17.25;9.43;;;;;;;1.83;88.68;100160.55;1701339;83;27686;-86
2022/12/08 08:25:18;;;;;;;17.77;9.28;;;;;;;1.86;88.63;100156.80;1719410;82;26093;-88
2022/12/08 08:27:45;;;;;;;17.40;9.20;;;;;;;1.88;88.67;100156.16;1718418;81;25830;-88
2022/12/08 08:30:12;;;;;;;21.55;9.58;;;;;;;1.88;88.57;100161.45;1690133;82;25805;-86
2022/12/08 08:32:39;;;;;;;18.95;9.35;;;;;;;1.89;88.54;100157.34;1719654;82;25852;-86
2022/12/08 08:35:06;;;;;;;17.50;9.05;;;;;;;1.89;88.45;100157.34;1719555;82;27015;-87
2022/12/08 08:37:35;;;;;;;16.82;9.58;;;;;;;1.86;88.34;100154.97;1718610;81;25734;-95
2022/12/08 08:40:06;;;;;;;17.80;9.23;;;;;;;1.87;88.42;100156.64;1714174;82;25932;-87
2022/12/08 08:42:32;;;;;;;16.97;8.85;;;;;;;1.92;88.54;100158.86;1729654;82;25817;-86
2022/12/08 08:44:58;;;;;;;14.93;8.38;;;;;;;1.93;88.42;100161.83;1722250;81;25882;-88
2022/12/08 08:47:26;;;;;;;20.35;10.50;;;;;;;1.95;88.40;100162.04;1711955;81;27462;-86
2022/12/08 08:49:52;;;;;;;19.52;9.90;;;;;;;1.93;88.08;100162.67;1739845;82;25782;-86
2022/12/08 08:52:18;;;;;;;17.57;9.50;;;;;;;1.93;88.12;100160.52;1740995;81;25801;-87
2022/12/08 08:54:44;;;;;;;20.20;9.43;;;;;;;1.93;88.06;100167.95;1716610;82;25769;-87
2022/12/08 08:57:11;;;;;;;20.23;10.68;;;;;;;1.97;88.10;100169.33;1720566;81;26097;-84
2022/12/08 08:59:37;;;;;;;18.85;10.58;;;;;;;1.99;88.16;100167.89;1727011;82;28278;-87
2022/12/08 09:02:03;;;;;;;19.52;10.40;;;;;;;2.01;88.23;100170.71;1717248;82;25360;-87
2022/12/08 09:04:29;;;;;;;18.42;10.08;;;;;;;2.07;88.34;100171.97;1715271;82;25961;-82
2022/12/08 09:06:56;;;;;;;21.12;11.38;;;;;;;2.10;88.28;100174.30;1714122;82;26609;-86
2022/12/08 09:09:22;;;;;;;19.55;11.22;;;;;;;2.11;88.34;100174.19;1725888;82;25589;-89
2022/12/08 09:11:48;;;;;;;17.48;10.78;;;;;;;2.15;88.23;100169.44;1722457;81;27447;-88
2022/12/08 09:14:15;;;;;;;21.80;11.25;;;;;;;2.13;88.16;100174.88;1713891;82;25333;-85
2022/12/08 09:16:43;;;;;;;19.80;10.95;;;;;;;2.15;88.15;100166.80;1702220;82;26480;-83
2022/12/08 09:19:09;;;;;;;25.15;13.70;;;;;;;2.13;88.17;100166.10;1726788;82;26865;-86
2022/12/08 09:21:36;;;;;;;24.50;12.35;;;;;;;2.11;88.23;100167.58;1716377;81;25901;-88
2022/12/08 09:24:02;;;;;;;20.97;13.35;;;;;;;2.11;88.27;100167.58;1712294;82;27615;-85
2022/12/08 09:26:29;;;;;;;25.65;13.22;;;;;;;2.11;88.34;100163.62;1718283;81;25475;-85
2022/12/08 09:28:56;;;;;;;24.87;14.65;;;;;;;2.12;88.48;100165.27;1718518;81;29345;-84
2022/12/08 09:31:24;;;;;;;28.95;15.65;;;;;;;2.14;88.61;100161.98;1724491;81;25914;-85
2022/12/08 09:33:50;;;;;;;27.32;15.75;;;;;;;2.13;88.48;100160.34;1714420;82;25525;-83
2022/12/08 09:36:17;;;;;;;31.17;16.00;;;;;;;2.10;88.46;100159.30;1719546;81;28601;-86
2022/12/08 09:38:43;;;;;;;34.13;16.57;;;;;;;2.13;88.53;100160.82;1720274;81;25966;-81
2022/12/08 09:41:37;;;;;;;35.03;18.23;;;;;;;2.16;88.71;100148.66;1724483;81;25297;-82
2022/12/08 09:44:26;;;;;;;33.13;16.57;;;;;;;2.21;88.93;100153.00;1723267;81;25773;-82
2022/12/08 09:46:55;;;;;;;30.75;16.42;;;;;;;2.26;89.14;100146.33;1727501;82;25780;-83
2022/12/08 09:49:33;;;;;;;24.30;14.13;;;;;;;2.31;89.19;100144.54;1726352;81;26948;-87
2022/12/08 09:52:00;;;;;;;25.60;14.63;;;;;;;2.35;89.11;100143.30;1730402;82;25377;-86
2022/12/08 09:54:34;;;;;;;26.80;15.15;;;;;;;2.38;89.04;100147.44;1725559;82;26030;-86
2022/12/08 09:57:06;;;;;;;34.03;16.95;;;;;;;2.38;88.92;100139.03;1711566;82;25760;-86
2022/12/08 09:59:34;;;;;;;29.75;16.05;;;;;;;2.41;89.04;100132.14;1728326;81;25939;-86
2022/12/08 10:02:02;;;;;;;29.72;16.60;;;;;;;2.44;89.16;100125.73;1725770;82;27447;-86
2022/12/08 10:04:35;;;;;;;32.00;16.42;;;;;;;2.46;89.04;100123.78;1731815;81;25752;-85
2022/12/08 10:07:22;;;;;;;26.93;16.15;;;;;;;2.50;89.15;100119.86;1729306;81;25466;-85
2022/12/08 10:10:12;;;;;;;32.98;16.42;;;;;;;2.53;89.32;100120.86;1703447;81;25919;-88
2022/12/08 10:12:49;;;;;;;30.87;16.43;;;;;;;2.57;89.44;100115.14;1720729;82;25790;-86
2022/12/08 10:15:45;;;;;;;31.70;16.73;;;;;;;2.62;89.64;100114.70;1728136;81;27485;-86
2022/12/08 10:18:19;;;;;;;27.65;16.87;;;;;;;2.66;89.69;100114.27;1732545;81;25635;-86
2022/12/08 10:20:48;;;;;;;32.70;17.10;;;;;;;2.70;89.72;100113.47;1685950;83;25983;-86
2022/12/08 10:23:20;;;;;;;31.02;16.42;;;;;;;2.74;89.81;100113.50;1732247;82;25793;-87
2022/12/08 10:25:51;;;;;;;33.08;17.57;;;;;;;2.78;89.93;100110.93;1737689;81;25766;-87
2022/12/08 10:28:17;;;;;;;33.23;19.00;;;;;;;2.82;90.04;100107.00;1740705;81;27483;-87
2022/12/08 10:30:44;;;;;;;30.95;17.98;;;;;;;2.84;90.12;100103.23;1726577;81;26296;-87
2022/12/08 10:33:17;;;;;;;26.27;16.82;;;;;;;2.88;90.28;100105.92;1711245;82;25810;-85
2022/12/08 10:35:52;;;;;;;29.67;17.02;;;;;;;2.92;90.49;100103.31;1721263;82;26595;-87
2022/12/08 10:38:39;;;;;;;28.10;18.37;;;;;;;2.97;90.62;100101.55;1723692;82;25864;-87
2022/12/08 10:41:13;;;;;;;31.15;17.60;;;;;;;2.99;90.64;100099.06;1715876;82;27475;-86
2022/12/08 10:43:46;;;;;;;31.45;18.32;;;;;;;3.03;90.68;100100.45;1691212;82;25753;-86
2022/12/08 10:46:18;;;;;;;32.83;17.45;;;;;;;3.07;90.77;100102.30;1740785;81;26130;-87
2022/12/08 10:48:58;;;;;;;32.93;17.98;;;;;;;3.11;90.87;100096.55;1728215;81;26651;-86
2022/12/08 10:51:35;;;;;;;31.77;19.65;;;;;;;3.14;90.90;100088.29;1711135;82;25527;-86
2022/12/08 10:54:04;;;;;;;33.15;20.10;;;;;;;3.19;90.93;100083.87;1712262;82;27447;-86
2022/12/08 10:56:32;;;;;;;32.75;20.40;;;;;;;3.21;91.01;100075.28;1723358;82;25935;-86
2022/12/08 10:59:16;;;;;;;33.20;21.12;;;;;;;3.26;91.20;100069.53;1736830;81;25587;-87
2022/12/08 11:01:47;;;;;;;31.55;20.95;;;;;;;3.28;91.35;100068.41;1716724;81;25881;-86
2022/12/08 11:04:23;;;;;;;29.52;20.37;;;;;;;3.31;91.35;100072.56;1713901;82;25295;-87
2022/12/08 11:06:52;;;;;;;33.67;20.27;;;;;;;3.31;91.20;100068.11;1712898;82;27437;-85
2022/12/08 11:09:26;;;;;;;37.05;22.42;;;;;;;3.32;91.30;100067.11;1718703;82;25916;-86
2022/12/08 11:12:00;;;;;;;40.65;26.33;;;;;;;3.38;91.45;100068.33;1715402;81;25853;-86
2022/12/08 11:14:34;;;;;;;37.58;22.62;;;;;;;3.40;91.39;100061.06;1735538;81;25913;-86
2022/12/08 11:17:14;;;;;;;31.75;20.92;;;;;;;3.44;91.60;100061.94;1726940;81;25758;-86
2022/12/08 11:19:45;;;;;;;35.95;20.82;;;;;;;3.45;91.53;100054.31;1714269;82;27471;-85
2022/12/08 11:22:37;;;;;;;37.05;21.55;;;;;;;3.48;91.55;100054.50;1710287;82;26001;-86
2022/12/08 11:25:27;;;;;;;32.35;20.40;;;;;;;3.51;91.56;100055.49;1712876;82;25737;-87
2022/12/08 11:27:58;;;;;;;35.68;21.62;;;;;;;3.52;91.68;100054.52;1722523;81;25780;-86
2022/12/08 11:30:31;;;;;;;36.42;21.73;;;;;;;3.54;91.66;100056.52;1725282;82;26298;-87
2022/12/08 11:33:12;;;;;;;39.00;23.55;;;;;;;3.55;91.55;100061.66;1724459;82;28766;-86
2022/12/08 11:35:44;;;;;;;38.92;23.05;;;;;;;3.58;91.74;100052.58;1711451;82;25277;-87
2022/12/08 11:38:14;;;;;;;34.73;22.05;;;;;;;3.64;91.98;100050.63;1718078;82;25757;-85
2022/12/08 11:40:43;;;;;;;36.85;22.58;;;;;;;3.69;92.14;100045.22;1715700;81;26516;-86
2022/12/08 11:43:36;;;;;;;34.40;23.02;;;;;;;3.76;92.08;100045.42;1711303;82;25877;-86
2022/12/08 11:46:19;;;;;;;36.83;22.82;;;;;;;3.81;92.10;100052.38;1709120;82;27426;-86
2022/12/08 11:49:00;;;;;;;37.55;22.82;;;;;;;3.83;91.94;100049.08;1725539;81;25324;-86
2022/12/08 11:51:36;;;;;;;;;;;;;;;3.87;92.00;100046.48;1714850;82;25749;-87